Time;durP1;ratioP1;P1;durP2;ratioP2;P2;SDS_P1;SDS_P2;PMS_P1;PMS_P2;Temp;Humidity;BMP_temperature;BMP_pressure;BME280_temperature;BME280_humidity;BME280_pressure;Samples;Min_cycle;Max_cycle;Signal;HPM_P1;HPM_P2
2022/09/21 00:00:40;;;;;;;3.97;1.97;;;12.50;99.90;;;;;;5017862;28;20257;-78
2022/09/21 00:03:06;;;;;;;4.63;2.40;;;12.40;99.90;;;;;;5018187;28;20915;-77
2022/09/21 00:05:33;;;;;;;6.40;2.70;;;12.40;99.90;;;;;;5018153;28;20197;-77
2022/09/21 00:08:04;;;;;;;5.13;2.60;;;12.40;99.90;;;;;;5017944;28;20285;-77
2022/09/21 00:10:30;;;;;;;6.80;2.42;;;12.30;99.90;;;;;;5000385;28;20582;-78
2022/09/21 00:12:57;;;;;;;5.03;2.55;;;12.30;99.90;;;;;;5019389;28;20229;-77
2022/09/21 00:15:24;;;;;;;3.03;2.15;;;12.20;99.90;;;;;;5020991;28;20509;-77
2022/09/21 00:17:54;;;;;;;3.75;2.17;;;12.20;99.90;;;;;;5000542;28;20190;-78
2022/09/21 00:20:20;;;;;;;9.15;2.55;;;12.20;99.90;;;;;;5017891;28;20171;-77
2022/09/21 00:22:47;;;;;;;5.40;2.65;;;12.20;99.90;;;;;;5017887;28;20166;-77
2022/09/21 00:25:13;;;;;;;4.00;2.30;;;12.20;99.90;;;;;;5016908;28;20173;-77
2022/09/21 00:27:39;;;;;;;4.70;2.75;;;12.10;99.90;;;;;;5000077;28;20579;-77
2022/09/21 00:30:06;;;;;;;4.77;2.43;;;12.10;99.90;;;;;;5017651;28;20178;-77
2022/09/21 00:32:35;;;;;;;2.40;1.90;;;12.10;99.90;;;;;;5017916;28;20573;-77
2022/09/21 00:35:04;;;;;;;4.15;2.10;;;12.00;99.90;;;;;;5017940;28;20537;-78
2022/09/21 00:37:30;;;;;;;4.00;2.33;;;12.00;99.90;;;;;;5017852;28;20198;-77
2022/09/21 00:39:56;;;;;;;3.20;2.03;;;12.00;99.90;;;;;;5017603;28;20198;-77
2022/09/21 00:42:26;;;;;;;4.10;2.65;;;11.90;99.90;;;;;;5017660;28;20259;-77
2022/09/21 00:44:53;;;;;;;5.60;2.17;;;11.90;99.90;;;;;;5000395;28;20178;-77
2022/09/21 00:47:24;;;;;;;3.90;2.00;;;11.90;99.90;;;;;;5000371;28;20701;-77
2022/09/21 00:49:54;;;;;;;5.65;2.58;;;11.90;99.90;;;;;;5018678;28;20528;-77
2022/09/21 00:52:23;;;;;;;5.45;2.80;;;11.90;99.90;;;;;;5020624;28;20193;-77
2022/09/21 00:54:55;;;;;;;6.03;2.65;;;11.80;99.90;;;;;;5016725;28;20221;-77
2022/09/21 00:57:24;;;;;;;4.80;2.60;;;11.80;99.90;;;;;;5014348;28;20252;-77
2022/09/21 00:59:54;;;;;;;4.80;2.78;;;11.80;99.90;;;;;;4997309;28;20193;-78
2022/09/21 01:02:21;;;;;;;3.55;2.05;;;11.80;99.90;;;;;;5013341;28;20253;-77
2022/09/21 01:04:47;;;;;;;5.40;2.30;;;11.80;99.90;;;;;;5014578;28;20170;-77
2022/09/21 01:07:17;;;;;;;5.78;2.40;;;11.80;99.90;;;;;;5014322;28;20182;-77
2022/09/21 01:09:46;;;;;;;4.80;2.10;;;11.80;99.90;;;;;;5014265;28;20535;-77
2022/09/21 01:13:19;;;;;;;4.43;1.90;;;11.70;99.90;;;;;;5014190;28;20175;-77
2022/09/21 01:16:05;;;;;;;5.55;2.40;;;11.70;99.90;;;;;;4943221;28;20196;-77
2022/09/21 01:18:43;;;;;;;4.68;2.35;;;11.70;99.90;;;;;;5012944;28;20281;-78
2022/09/21 01:21:17;;;;;;;2.88;1.65;;;11.70;99.90;;;;;;5012491;28;20177;-78
2022/09/21 01:23:49;;;;;;;4.22;2.42;;;11.70;99.90;;;;;;5014216;28;20253;-77
2022/09/21 01:26:38;;;;;;;6.93;3.10;;;11.60;99.90;;;;;;5014109;28;20171;-77
2022/09/21 01:29:33;;;;;;;3.35;2.50;;;11.60;99.90;;;;;;5001301;28;20206;-78
2022/09/21 01:32:28;;;;;;;6.00;2.83;;;11.60;99.90;;;;;;5014052;28;20174;-77
2022/09/21 01:35:19;;;;;;;3.10;1.95;;;11.60;99.90;;;;;;5013939;28;20171;-78
2022/09/21 01:37:58;;;;;;;4.20;2.15;;;11.60;99.90;;;;;;5013857;28;20539;-77
2022/09/21 01:40:33;;;;;;;4.93;2.30;;;11.50;99.90;;;;;;5013551;28;20212;-77
2022/09/21 01:43:01;;;;;;;4.57;2.28;;;11.50;99.90;;;;;;5013775;28;20170;-77
2022/09/21 01:45:31;;;;;;;6.47;2.33;;;11.50;99.90;;;;;;5013719;28;20171;-77
2022/09/21 01:47:59;;;;;;;4.93;2.47;;;11.50;99.90;;;;;;5012469;28;20194;-77
2022/09/21 01:50:30;;;;;;;6.22;2.30;;;11.50;99.90;;;;;;5013373;28;20162;-76
2022/09/21 01:53:38;;;;;;;5.75;2.30;;;11.50;99.90;;;;;;4995941;28;20174;-77
2022/09/21 01:56:12;;;;;;;3.75;2.33;;;11.50;99.90;;;;;;5002864;28;20186;-76
2022/09/21 01:58:45;;;;;;;4.07;2.20;;;11.50;99.90;;;;;;4995822;28;20214;-77
2022/09/21 02:01:15;;;;;;;3.05;2.28;;;11.40;99.90;;;;;;5013143;28;20177;-77
2022/09/21 02:03:50;;;;;;;6.03;2.90;;;11.40;99.90;;;;;;5013485;28;20167;-76
2022/09/21 02:06:17;;;;;;;5.90;2.33;;;11.40;99.90;;;;;;5020029;28;20312;-76
2022/09/21 02:08:44;;;;;;;4.68;2.30;;;11.40;99.90;;;;;;4995968;28;20197;-76
2022/09/21 02:11:12;;;;;;;5.57;2.25;;;11.40;99.90;;;;;;5012767;28;20500;-77
2022/09/21 02:13:43;;;;;;;4.80;2.45;;;11.30;99.90;;;;;;4995527;28;20178;-76
2022/09/21 02:16:24;;;;;;;6.75;2.47;;;11.30;99.90;;;;;;5013108;28;20585;-77
2022/09/21 02:19:15;;;;;;;5.47;3.75;;;11.30;99.90;;;;;;5013021;28;20253;-77
2022/09/21 02:22:13;;;;;;;5.68;2.63;;;11.30;99.90;;;;;;5012879;28;20177;-77
2022/09/21 02:24:46;;;;;;;5.50;3.05;;;11.30;99.90;;;;;;5014485;28;20178;-77
2022/09/21 02:27:39;;;;;;;4.25;2.80;;;11.30;99.90;;;;;;4995220;28;20241;-78
2022/09/21 02:30:20;;;;;;;6.75;3.30;;;11.20;99.90;;;;;;5012557;28;20210;-78
2022/09/21 02:33:10;;;;;;;3.55;2.20;;;11.20;99.90;;;;;;5012671;28;20180;-78
2022/09/21 02:35:47;;;;;;;7.18;2.28;;;11.20;99.90;;;;;;5003717;28;20170;-78
2022/09/21 02:38:39;;;;;;;5.90;2.42;;;11.20;99.90;;;;;;4979209;28;20202;-77
2022/09/21 02:41:27;;;;;;;5.22;2.58;;;11.20;99.90;;;;;;5010329;28;20240;-77
2022/09/21 02:44:13;;;;;;;3.78;1.90;;;11.10;99.90;;;;;;5013608;28;20573;-78
2022/09/21 02:47:02;;;;;;;3.85;2.25;;;11.10;99.90;;;;;;5012472;28;20253;-78
2022/09/21 02:49:35;;;;;;;2.95;1.70;;;11.10;99.90;;;;;;5012242;28;20170;-77
2022/09/21 02:52:09;;;;;;;6.03;2.00;;;11.10;99.90;;;;;;5012469;28;20513;-78
2022/09/21 02:54:36;;;;;;;5.28;2.08;;;11.00;99.90;;;;;;5012484;28;20167;-78
2022/09/21 02:57:04;;;;;;;3.35;2.40;;;11.00;99.90;;;;;;4994910;28;20218;-77
2022/09/21 02:59:30;;;;;;;3.38;2.20;;;11.10;99.90;;;;;;4994326;28;20205;-78
2022/09/21 03:01:56;;;;;;;6.13;2.20;;;11.00;99.90;;;;;;5012242;28;20167;-77
2022/09/21 03:04:22;;;;;;;5.23;2.30;;;11.00;99.90;;;;;;5012370;28;20185;-78
2022/09/21 03:06:48;;;;;;;4.60;2.28;;;11.00;99.90;;;;;;5012219;28;20538;-77
2022/09/21 03:09:14;;;;;;;3.00;1.70;;;11.00;99.90;;;;;;5011923;28;20174;-78
2022/09/21 03:11:42;;;;;;;4.63;2.17;;;11.10;99.90;;;;;;5012048;28;20170;-78
2022/09/21 03:14:08;;;;;;;4.93;2.20;;;11.10;99.90;;;;;;5012097;28;20178;-77
2022/09/21 03:16:35;;;;;;;3.83;2.58;;;11.00;99.90;;;;;;4994301;28;20178;-78
2022/09/21 03:19:01;;;;;;;3.78;2.20;;;11.00;99.90;;;;;;5015944;28;20228;-78
2022/09/21 03:21:28;;;;;;;5.57;2.50;;;11.00;99.90;;;;;;5011851;28;20177;-77
2022/09/21 03:23:54;;;;;;;4.20;2.40;;;11.00;99.90;;;;;;5012150;28;20201;-77
2022/09/21 03:26:22;;;;;;;3.80;2.53;;;11.00;99.90;;;;;;5012220;28;20209;-77
2022/09/21 03:28:49;;;;;;;4.40;2.70;;;11.00;99.90;;;;;;5011975;28;20628;-77
2022/09/21 03:31:15;;;;;;;4.30;3.25;;;11.00;99.90;;;;;;5012325;28;20224;-77
2022/09/21 03:33:41;;;;;;;3.85;2.72;;;11.00;99.90;;;;;;5012241;28;20178;-77
2022/09/21 03:36:07;;;;;;;5.70;2.67;;;11.00;99.90;;;;;;4994463;28;20174;-77
2022/09/21 03:38:33;;;;;;;5.40;3.53;;;11.00;99.90;;;;;;5011967;28;20221;-77
2022/09/21 03:40:59;;;;;;;4.80;3.10;;;11.00;99.90;;;;;;5012149;28;20919;-78
2022/09/21 03:43:25;;;;;;;4.33;2.73;;;11.00;99.90;;;;;;5012235;28;20170;-77
2022/09/21 03:45:52;;;;;;;4.80;3.25;;;11.00;99.90;;;;;;5012188;28;20251;-77
2022/09/21 03:48:17;;;;;;;4.72;3.30;;;11.00;99.90;;;;;;5011956;28;20194;-77
2022/09/21 03:50:44;;;;;;;3.53;3.03;;;11.00;99.90;;;;;;5011802;28;20560;-77
2022/09/21 03:53:10;;;;;;;5.65;3.67;;;11.00;99.90;;;;;;5011680;28;20662;-77
2022/09/21 03:55:37;;;;;;;5.80;3.78;;;11.00;99.90;;;;;;4997776;28;20198;-77
2022/09/21 03:58:02;;;;;;;4.35;3.15;;;11.00;99.90;;;;;;5012541;28;20202;-77
2022/09/21 04:00:29;;;;;;;4.37;3.43;;;11.00;99.90;;;;;;5011513;28;20212;-77
2022/09/21 04:02:55;;;;;;;5.30;3.15;;;11.00;99.90;;;;;;5011739;28;20653;-78
2022/09/21 04:05:22;;;;;;;6.28;3.20;;;11.00;99.90;;;;;;5012114;28;20209;-78
2022/09/21 04:07:48;;;;;;;4.68;3.22;;;11.00;99.90;;;;;;5011457;28;20193;-77
2022/09/21 04:10:20;;;;;;;6.40;3.97;;;11.00;99.90;;;;;;5011425;28;20257;-78
2022/09/21 04:12:46;;;;;;;9.70;5.07;;;11.00;99.90;;;;;;5011462;28;20627;-78
2022/09/21 04:15:15;;;;;;;8.60;3.90;;;10.90;99.90;;;;;;5011593;28;20162;-77
2022/09/21 04:17:41;;;;;;;3.22;2.55;;;10.90;99.90;;;;;;5011190;28;20206;-77
2022/09/21 04:20:07;;;;;;;5.17;3.27;;;11.00;99.90;;;;;;5011157;28;20213;-77
2022/09/21 04:22:37;;;;;;;4.90;2.25;;;11.00;99.90;;;;;;5011378;28;20573;-77
2022/09/21 04:25:06;;;;;;;5.22;3.50;;;11.00;99.90;;;;;;5011329;28;20178;-77
2022/09/21 04:27:32;;;;;;;4.28;2.90;;;11.00;99.90;;;;;;5012161;28;20206;-77
2022/09/21 04:29:59;;;;;;;4.75;3.58;;;11.00;99.90;;;;;;5014671;28;20166;-77
2022/09/21 04:32:25;;;;;;;8.55;4.22;;;11.00;99.90;;;;;;4999314;28;20607;-77
2022/09/21 04:34:51;;;;;;;2.92;2.63;;;10.90;99.90;;;;;;5000008;28;20189;-77
2022/09/21 04:37:16;;;;;;;7.20;3.23;;;10.90;99.90;;;;;;5014910;28;20186;-77
2022/09/21 04:39:42;;;;;;;3.67;3.33;;;10.90;99.90;;;;;;4980979;28;20215;-77
2022/09/21 04:42:09;;;;;;;7.83;3.97;;;10.90;99.90;;;;;;5014897;28;20238;-77
2022/09/21 04:44:35;;;;;;;4.57;3.90;;;10.90;99.90;;;;;;5014869;28;20170;-77
2022/09/21 04:47:01;;;;;;;4.13;3.63;;;10.90;99.90;;;;;;5014783;28;20228;-77
2022/09/21 04:49:26;;;;;;;5.37;3.50;;;10.90;99.90;;;;;;5013392;28;20252;-77
2022/09/21 04:51:52;;;;;;;6.60;3.97;;;10.90;99.90;;;;;;5014535;28;20177;-77
2022/09/21 04:54:18;;;;;;;5.30;4.07;;;11.00;99.90;;;;;;5014665;28;20566;-77
2022/09/21 04:56:44;;;;;;;6.67;5.43;;;11.00;99.90;;;;;;5014391;28;20561;-77
2022/09/21 04:59:10;;;;;;;5.03;4.53;;;10.90;99.90;;;;;;5014507;28;20256;-77
2022/09/21 05:01:35;;;;;;;8.20;5.80;;;10.90;99.90;;;;;;5014443;28;20222;-77
2022/09/21 05:04:01;;;;;;;6.50;3.97;;;10.80;99.90;;;;;;4997062;28;20220;-76
2022/09/21 05:06:32;;;;;;;6.15;4.75;;;10.80;99.90;;;;;;4996866;28;20608;-76
2022/09/21 05:11:43;;;;;;;6.20;4.13;;;10.80;99.90;;;;;;5018609;28;20220;-77
2022/09/21 05:14:09;;;;;;;6.30;4.85;;;10.80;99.90;;;;;;5014561;28;20583;-76
2022/09/21 05:16:35;;;;;;;8.20;6.10;;;10.80;99.90;;;;;;5013175;28;20273;-77
2022/09/21 05:19:01;;;;;;;7.87;5.30;;;10.80;99.90;;;;;;5014002;28;20277;-77
2022/09/21 05:21:27;;;;;;;5.87;5.27;;;10.80;99.90;;;;;;5013629;28;20568;-77
2022/09/21 05:23:53;;;;;;;5.53;5.00;;;10.80;99.90;;;;;;5014137;28;20565;-77
2022/09/21 05:26:19;;;;;;;5.45;4.55;;;10.80;99.90;;;;;;5014183;28;20240;-76
2022/09/21 05:28:45;;;;;;;6.35;4.78;;;10.80;99.90;;;;;;5013775;28;20201;-77
2022/09/21 05:31:17;;;;;;;7.80;4.73;;;10.80;99.90;;;;;;5013721;28;20169;-77
2022/09/21 05:34:04;;;;;;;5.20;4.35;;;10.80;99.90;;;;;;5014018;28;20569;-76
2022/09/21 05:36:36;;;;;;;6.32;4.43;;;10.80;99.90;;;;;;5013891;28;20174;-77
2022/09/21 05:39:02;;;;;;;5.82;4.35;;;10.80;99.90;;;;;;5013567;28;20199;-77
2022/09/21 05:41:29;;;;;;;5.90;3.95;;;10.80;99.90;;;;;;5013409;28;20179;-76
2022/09/21 05:43:55;;;;;;;5.70;4.60;;;10.80;99.90;;;;;;5013694;28;20175;-77
2022/09/21 05:46:54;;;;;;;5.53;4.55;;;10.80;99.90;;;;;;4996880;28;20178;-77
2022/09/21 05:49:41;;;;;;;4.35;3.75;;;10.80;99.90;;;;;;5013691;28;20173;-77
2022/09/21 05:52:07;;;;;;;6.53;4.07;;;10.90;99.90;;;;;;5002523;28;20264;-76
2022/09/21 05:54:41;;;;;;;6.50;4.20;;;10.90;99.90;;;;;;4979844;28;20214;-77
2022/09/21 05:57:22;;;;;;;6.38;4.25;;;10.90;99.90;;;;;;5013408;28;20198;-77
2022/09/21 05:59:57;;;;;;;6.45;4.75;;;10.90;99.90;;;;;;5013521;28;20568;-76
2022/09/21 06:02:34;;;;;;;5.80;3.67;;;11.00;99.90;;;;;;5015088;28;20193;-77
2022/09/21 06:05:01;;;;;;;9.00;4.45;;;11.00;99.90;;;;;;4995676;28;20170;-76
2022/09/21 06:07:27;;;;;;;4.00;3.53;;;11.00;99.90;;;;;;5017839;28;20195;-76
2022/09/21 06:09:53;;;;;;;8.85;4.63;;;11.10;99.90;;;;;;5021548;28;20528;-77
2022/09/21 06:12:19;;;;;;;6.97;5.33;;;11.10;99.90;;;;;;5022404;28;20201;-77
2022/09/21 06:14:44;;;;;;;7.60;4.70;;;11.20;99.90;;;;;;5002044;28;20186;-77
2022/09/21 06:17:10;;;;;;;7.30;4.20;;;11.20;99.90;;;;;;5014033;28;20236;-76
2022/09/21 06:19:36;;;;;;;6.00;4.33;;;11.20;99.90;;;;;;5013170;28;20198;-77
2022/09/21 06:22:02;;;;;;;8.17;5.00;;;11.30;99.90;;;;;;5012302;28;20182;-76
2022/09/21 06:24:27;;;;;;;5.00;4.50;;;11.30;99.90;;;;;;5000400;28;20257;-77
2022/09/21 06:26:53;;;;;;;6.57;5.63;;;11.30;99.90;;;;;;5013082;28;20162;-77
2022/09/21 06:29:22;;;;;;;6.17;5.57;;;11.30;99.90;;;;;;4995516;28;20182;-77
2022/09/21 06:31:51;;;;;;;10.07;5.15;;;11.30;99.90;;;;;;5011757;28;20265;-76
2022/09/21 06:34:17;;;;;;;7.07;6.38;;;11.30;99.90;;;;;;5012895;28;20170;-76
2022/09/21 06:36:44;;;;;;;6.65;5.95;;;11.20;99.90;;;;;;5012730;28;20212;-77
2022/09/21 06:39:10;;;;;;;9.02;6.80;;;11.20;99.90;;;;;;4994933;28;20198;-77
2022/09/21 06:41:36;;;;;;;7.32;6.60;;;11.20;99.90;;;;;;5045273;22;20673;-74
2022/09/21 06:44:08;;;;;;;8.45;6.65;;;11.20;99.90;;;;;;5007353;28;20177;-74
2022/09/21 06:46:34;;;;;;;10.27;6.63;;;11.20;99.90;;;;;;5053691;28;20624;-73
2022/09/21 06:49:00;;;;;;;8.53;6.77;;;11.20;99.90;;;;;;5017978;28;20222;-73
2022/09/21 06:51:26;;;;;;;7.30;6.55;;;11.20;99.90;;;;;;5033438;28;20652;-73
2022/09/21 06:53:56;;;;;;;6.03;5.43;;;11.30;99.90;;;;;;5052123;28;20208;-73
2022/09/21 06:56:23;;;;;;;9.48;5.93;;;11.30;99.90;;;;;;5054033;28;20188;-74
2022/09/21 06:58:49;;;;;;;9.23;6.38;;;11.50;99.90;;;;;;5055389;28;20197;-74
2022/09/21 07:01:15;;;;;;;5.80;5.00;;;11.50;99.90;;;;;;5034231;28;20699;-73
2022/09/21 07:03:42;;;;;;;8.60;6.07;;;11.70;99.90;;;;;;5019550;28;20173;-73
2022/09/21 07:06:14;;;;;;;7.38;5.75;;;11.80;99.90;;;;;;5051975;28;20267;-73
2022/09/21 07:08:41;;;;;;;10.90;6.00;;;11.90;99.90;;;;;;5034278;28;20177;-73
2022/09/21 07:11:07;;;;;;;7.47;6.40;;;12.00;99.90;;;;;;5051465;28;20185;-73
2022/09/21 07:13:34;;;;;;;7.57;6.20;;;12.20;99.90;;;;;;5051779;28;20169;-73
2022/09/21 07:16:08;;;;;;;7.20;6.13;;;12.40;99.90;;;;;;5051703;28;20171;-73
2022/09/21 07:18:34;;;;;;;8.03;6.70;;;12.80;99.90;;;;;;5051683;28;20664;-73
2022/09/21 07:21:07;;;;;;;7.60;6.90;;;13.50;99.90;;;;;;5033651;28;20737;-74
2022/09/21 07:23:34;;;;;;;7.43;6.47;;;14.40;99.90;;;;;;5054828;28;20670;-73
2022/09/21 07:26:02;;;;;;;5.17;4.67;;;15.40;99.90;;;;;;5051674;28;20658;-73
2022/09/21 07:28:28;;;;;;;7.00;6.30;;;16.40;99.90;;;;;;5051824;28;20963;-74
2022/09/21 07:30:55;;;;;;;6.97;5.30;;;17.30;99.90;;;;;;5051286;28;20598;-73
2022/09/21 07:33:21;;;;;;;5.30;4.67;;;18.40;99.90;;;;;;5051662;28;21100;-73
2022/09/21 07:35:55;;;;;;;5.33;4.27;;;19.30;99.90;;;;;;5033701;28;20572;-74
2022/09/21 07:38:22;;;;;;;5.37;4.33;;;20.00;99.90;;;;;;5017218;28;20179;-74
2022/09/21 07:40:49;;;;;;;4.43;3.70;;;20.80;99.90;;;;;;5033145;28;20568;-73
2022/09/21 07:43:16;;;;;;;4.73;3.80;;;21.60;99.90;;;;;;5017226;28;20575;-74
2022/09/21 07:45:42;;;;;;;4.70;4.10;;;22.30;99.90;;;;;;5051464;28;20575;-74
2022/09/21 07:48:08;;;;;;;5.00;4.43;;;22.60;99.90;;;;;;5017224;28;20567;-74
2022/09/21 07:50:34;;;;;;;6.17;4.80;;;23.20;99.90;;;;;;5051026;28;20578;-74
2022/09/21 07:53:01;;;;;;;7.17;3.93;;;23.90;99.90;;;;;;5051254;28;20571;-72
2022/09/21 07:55:27;;;;;;;3.93;3.53;;;24.60;99.90;;;;;;5051306;28;20556;-73
2022/09/21 08:00:37;;;;;;;4.53;4.13;;;25.80;99.90;;;;;;5051825;28;20575;-72
2022/09/21 08:03:04;;;;;;;5.30;4.80;;;26.60;99.90;;;;;;5036992;28;21102;-72
2022/09/21 08:05:31;;;;;;;5.53;5.03;;;27.20;99.90;;;;;;5055463;28;20172;-73
2022/09/21 08:07:57;;;;;;;5.60;5.10;;;27.80;99.90;;;;;;5037524;28;20570;-73
2022/09/21 08:10:27;;;;;;;4.93;3.97;;;28.40;99.90;;;;;;5055000;28;21107;-73
2022/09/21 08:12:53;;;;;;;5.00;4.50;;;28.80;99.90;;;;;;5055147;28;20431;-73
2022/09/21 08:15:19;;;;;;;6.73;4.90;;;29.20;99.90;;;;;;5037346;28;20563;-72
2022/09/21 08:17:44;;;;;;;6.37;4.70;;;29.60;99.20;;;;;;5054889;28;20617;-72
2022/09/21 08:20:10;;;;;;;6.00;5.40;;;30.00;97.70;;;;;;5036738;28;20232;-72
2022/09/21 08:22:36;;;;;;;5.63;4.73;;;30.30;96.70;;;;;;5036958;28;20191;-71
2022/09/21 08:25:03;;;;;;;6.47;5.87;;;30.70;95.50;;;;;;5054930;28;20175;-72
2022/09/21 08:27:29;;;;;;;6.23;5.57;;;30.60;92.40;;;;;;5037049;28;20178;-72
2022/09/21 08:29:55;;;;;;;6.80;6.20;;;30.20;90.80;;;;;;5054841;28;21368;-72
2022/09/21 08:32:21;;;;;;;7.50;6.37;;;30.00;86.00;;;;;;5054652;28;20190;-72
2022/09/21 08:34:48;;;;;;;7.43;6.20;;;29.70;85.40;;;;;;5037526;28;20180;-73
2022/09/21 08:37:14;;;;;;;8.07;7.27;;;29.60;86.00;;;;;;5057477;28;20172;-73
2022/09/21 08:39:40;;;;;;;6.67;5.97;;;29.60;83.90;;;;;;5054386;28;20722;-72
2022/09/21 08:42:13;;;;;;;6.97;6.27;;;29.60;84.90;;;;;;5054218;28;20709;-73
2022/09/21 08:44:50;;;;;;;6.83;6.23;;;29.90;83.70;;;;;;5036894;28;20179;-72
2022/09/21 08:47:31;;;;;;;7.73;6.63;;;30.20;83.20;;;;;;5054618;28;20603;-73
2022/09/21 08:50:01;;;;;;;6.70;6.10;;;30.60;82.80;;;;;;5054366;28;20664;-73
2022/09/21 08:52:27;;;;;;;7.47;6.63;;;30.80;80.80;;;;;;5054606;28;20705;-73
2022/09/21 08:54:58;;;;;;;7.97;6.87;;;30.90;80.60;;;;;;5037164;28;20662;-73
2022/09/21 08:57:32;;;;;;;7.40;6.67;;;31.10;78.60;;;;;;5054480;28;20624;-73
2022/09/21 09:00:00;;;;;;;6.77;6.20;;;31.50;77.30;;;;;;5036174;28;20778;-73
2022/09/21 09:02:37;;;;;;;7.13;6.43;;;31.90;76.80;;;;;;5053958;28;20595;-72
2022/09/21 09:05:22;;;;;;;6.60;6.00;;;32.20;75.70;;;;;;5036473;28;20669;-73
2022/09/21 09:08:19;;;;;;;5.30;4.87;;;32.30;73.10;;;;;;5054232;28;20559;-73
2022/09/21 09:11:11;;;;;;;5.80;5.17;;;32.30;70.10;;;;;;5053857;28;20573;-72
2022/09/21 09:13:55;;;;;;;6.43;5.83;;;32.10;68.70;;;;;;5009315;28;20688;-73
2022/09/21 09:16:39;;;;;;;5.00;4.50;;;32.00;62.90;;;;;;5036028;28;20569;-73
2022/09/21 09:19:30;;;;;;;5.07;4.27;;;31.90;66.30;;;;;;5036082;28;20711;-73
2022/09/21 09:21:56;;;;;;;5.80;4.30;;;32.10;66.90;;;;;;5035889;28;20598;-73
2022/09/21 09:24:34;;;;;;;5.33;4.83;;;31.70;63.50;;;;;;5053734;28;20569;-73
2022/09/21 09:27:16;;;;;;;4.83;4.30;;;31.70;62.70;;;;;;5053782;28;20179;-72
2022/09/21 09:30:00;;;;;;;3.60;3.30;;;31.90;63.20;;;;;;5035636;28;20569;-73
2022/09/21 09:32:40;;;;;;;4.27;3.93;;;32.00;62.50;;;;;;5035650;28;20610;-72
2022/09/21 09:35:32;;;;;;;4.57;3.50;;;32.20;61.40;;;;;;5053577;28;20573;-73
2022/09/21 09:38:23;;;;;;;3.73;2.97;;;32.20;61.10;;;;;;5053560;28;20948;-72
2022/09/21 09:41:14;;;;;;;3.50;2.20;;;32.40;60.80;;;;;;5052909;28;20609;-72
2022/09/21 09:43:57;;;;;;;2.70;2.20;;;32.40;59.00;;;;;;5053332;28;20925;-73
2022/09/21 09:46:58;;;;;;;3.33;2.50;;;32.40;58.50;;;;;;5035575;28;20605;-73
2022/09/21 09:50:01;;;;;;;6.67;2.40;;;32.30;58.60;;;;;;5053885;28;20907;-73
2022/09/21 09:52:27;;;;;;;3.10;2.30;;;32.20;56.50;;;;;;5053114;28;20595;-72
2022/09/21 09:54:53;;;;;;;2.30;2.00;;;32.10;57.20;;;;;;5053264;28;20929;-73
2022/09/21 09:57:27;;;;;;;3.67;2.20;;;32.10;56.70;;;;;;5018983;28;20169;-73
2022/09/21 10:00:03;;;;;;;3.73;2.63;;;32.30;56.30;;;;;;5052717;28;20675;-73
2022/09/21 10:02:57;;;;;;;3.67;2.77;;;32.10;55.60;;;;;;5052877;28;20983;-73
2022/09/21 10:05:30;;;;;;;3.50;2.50;;;32.00;54.50;;;;;;5053024;28;20575;-73
2022/09/21 10:07:55;;;;;;;4.27;2.47;;;31.70;54.30;;;;;;5053175;28;20894;-74
2022/09/21 10:10:40;;;;;;;3.20;1.50;;;31.60;54.70;;;;;;5052732;28;20572;-73
2022/09/21 10:13:15;;;;;;;4.00;1.70;;;31.90;54.90;;;;;;5035141;28;20176;-73
2022/09/21 10:15:53;;;;;;;2.83;1.80;;;31.90;54.70;;;;;;5052867;28;20931;-73
2022/09/21 10:18:24;;;;;;;3.00;2.27;;;32.20;54.90;;;;;;5034838;28;20577;-73
2022/09/21 10:20:56;;;;;;;2.33;1.33;;;32.50;54.80;;;;;;5052439;28;20642;-73
2022/09/21 10:23:23;;;;;;;2.17;1.00;;;32.60;51.40;;;;;;5052625;28;20551;-73
2022/09/21 10:25:57;;;;;;;3.40;1.50;;;32.10;51.60;;;;;;5033977;28;20662;-73
2022/09/21 10:28:23;;;;;;;2.17;0.90;;;31.70;50.40;;;;;;5035784;28;21001;-73
2022/09/21 10:31:05;;;;;;;2.47;0.90;;;31.10;50.90;;;;;;5052348;28;20557;-72
2022/09/21 10:33:32;;;;;;;1.87;0.73;;;30.90;51.20;;;;;;5052543;28;20653;-72
2022/09/21 10:35:57;;;;;;;2.37;0.97;;;30.70;50.70;;;;;;5052593;28;20655;-73
2022/09/21 10:38:28;;;;;;;2.70;0.87;;;30.50;50.40;;;;;;5052405;28;20590;-72
2022/09/21 10:40:54;;;;;;;4.20;1.10;;;30.30;49.90;;;;;;5052080;28;20235;-73
2022/09/21 10:43:39;;;;;;;2.13;1.00;;;29.90;49.60;;;;;;5034489;28;20569;-73
2022/09/21 10:46:04;;;;;;;2.27;0.90;;;29.60;49.50;;;;;;5052256;28;20944;-72
2022/09/21 10:48:30;;;;;;;2.93;0.80;;;29.40;49.90;;;;;;5052226;28;20574;-72
2022/09/21 10:50:57;;;;;;;2.60;1.10;;;29.20;50.30;;;;;;5034140;28;20281;-73
2022/09/21 10:53:27;;;;;;;1.40;0.60;;;29.20;50.60;;;;;;5051997;28;20178;-73
2022/09/21 10:56:17;;;;;;;2.50;0.70;;;29.20;50.70;;;;;;5052096;28;20565;-73
2022/09/21 10:59:28;;;;;;;1.70;0.70;;;29.20;49.20;;;;;;5038185;28;20641;-73
2022/09/21 11:01:56;;;;;;;1.70;0.80;;;29.20;49.60;;;;;;5046174;28;20973;-73
2022/09/21 11:04:47;;;;;;;3.00;0.60;;;29.30;50.00;;;;;;5053491;28;20553;-73
2022/09/21 11:07:54;;;;;;;1.90;0.70;;;29.30;46.00;;;;;;5051967;28;20944;-73
2022/09/21 11:10:25;;;;;;;1.70;0.60;;;29.20;48.10;;;;;;4932163;29;20589;-73
2022/09/21 11:13:06;;;;;;;2.63;0.90;;;29.10;48.00;;;;;;4932266;29;20609;-73
2022/09/21 11:15:53;;;;;;;1.83;1.00;;;28.90;47.90;;;;;;5004069;28;20588;-72
2022/09/21 11:18:42;;;;;;;2.57;0.70;;;28.70;48.60;;;;;;5051779;28;20665;-73
2022/09/21 11:21:18;;;;;;;2.60;0.80;;;28.70;47.60;;;;;;5051339;28;20603;-72
2022/09/21 11:24:08;;;;;;;1.87;0.90;;;28.80;48.90;;;;;;5051642;28;20888;-72
2022/09/21 11:26:55;;;;;;;4.53;1.20;;;28.90;48.90;;;;;;5051585;28;20568;-72
2022/09/21 11:29:25;;;;;;;2.33;0.90;;;28.80;49.00;;;;;;5051380;28;20567;-72
2022/09/21 11:32:12;;;;;;;4.13;1.20;;;28.80;49.40;;;;;;5033435;28;20657;-72
2022/09/21 11:34:44;;;;;;;2.67;1.10;;;28.70;48.80;;;;;;5051666;28;20624;-72
2022/09/21 11:37:31;;;;;;;1.70;0.80;;;28.80;49.50;;;;;;5051145;28;20650;-72
2022/09/21 11:40:23;;;;;;;3.40;1.20;;;28.70;48.60;;;;;;5051545;28;20642;-72
2022/09/21 11:43:23;;;;;;;2.80;1.00;;;28.60;49.20;;;;;;5000400;28;20721;-72
2022/09/21 11:46:06;;;;;;;1.83;1.00;;;28.70;48.70;;;;;;5051493;28;20969;-73
2022/09/21 11:49:01;;;;;;;1.80;0.87;;;28.50;48.00;;;;;;5051385;28;20567;-72
2022/09/21 11:51:39;;;;;;;3.80;0.90;;;28.40;46.50;;;;;;5050924;28;20603;-72
2022/09/21 11:54:26;;;;;;;2.17;0.80;;;28.40;48.00;;;;;;5051450;28;20932;-73
2022/09/21 11:57:30;;;;;;;3.50;0.70;;;28.30;47.90;;;;;;5051208;28;20980;-73
2022/09/21 12:00:19;;;;;;;4.70;1.10;;;28.30;48.40;;;;;;5050975;28;20654;-72
2022/09/21 12:02:50;;;;;;;1.50;0.67;;;28.40;48.70;;;;;;5033416;28;20639;-72
2022/09/21 12:05:43;;;;;;;3.07;1.20;;;28.40;48.60;;;;;;5051118;28;20654;-73
2022/09/21 12:08:45;;;;;;;4.00;1.03;;;28.40;48.40;;;;;;5051307;28;20567;-73
2022/09/21 12:11:40;;;;;;;3.33;0.80;;;28.20;48.50;;;;;;5032856;28;20947;-72
2022/09/21 12:14:27;;;;;;;1.97;0.80;;;28.20;49.10;;;;;;5033234;28;20567;-73
2022/09/21 12:17:02;;;;;;;1.87;0.90;;;28.00;48.30;;;;;;5051210;28;20595;-73
2022/09/21 12:20:05;;;;;;;4.27;1.20;;;27.80;48.00;;;;;;5052249;28;20622;-73
2022/09/21 12:22:34;;;;;;;1.90;0.80;;;27.60;47.80;;;;;;4931262;29;20671;-73
2022/09/21 12:25:20;;;;;;;2.00;0.80;;;27.20;47.10;;;;;;5028624;28;21023;-73
2022/09/21 12:27:55;;;;;;;3.40;1.00;;;26.90;46.90;;;;;;5050952;28;20630;-72
2022/09/21 12:30:22;;;;;;;3.20;0.70;;;26.70;47.40;;;;;;5033117;28;20576;-73
2022/09/21 12:32:51;;;;;;;2.13;0.77;;;26.70;48.10;;;;;;5050601;28;20954;-73
2022/09/21 12:35:32;;;;;;;4.70;0.70;;;26.60;47.60;;;;;;5051034;28;20572;-73
2022/09/21 12:38:18;;;;;;;1.90;0.80;;;26.50;47.90;;;;;;5050871;28;20660;-73
2022/09/21 12:40:53;;;;;;;2.67;0.70;;;26.50;48.00;;;;;;5050354;28;20572;-72
2022/09/21 12:43:48;;;;;;;2.63;0.70;;;26.40;48.20;;;;;;5033087;28;21141;-72
2022/09/21 12:46:46;;;;;;;1.80;0.50;;;26.20;47.30;;;;;;5081298;22;21244;-79
2022/09/21 12:49:20;;;;;;;2.30;0.50;;;25.90;46.30;;;;;;5032506;28;20588;-78
2022/09/21 12:51:53;;;;;;;2.60;0.70;;;25.70;46.80;;;;;;5058920;28;20569;-78
2022/09/21 12:54:38;;;;;;;3.10;0.50;;;25.40;46.40;;;;;;5075453;28;20965;-78
2022/09/21 12:57:35;;;;;;;2.17;0.70;;;25.10;46.10;;;;;;5057634;28;20697;-79
2022/09/21 13:00:21;;;;;;;2.67;0.80;;;24.70;46.20;;;;;;5040798;28;20639;-79
2022/09/21 13:03:09;;;;;;;1.50;0.60;;;24.60;46.90;;;;;;5024889;28;20620;-76
2022/09/21 13:05:43;;;;;;;2.27;1.00;;;24.50;47.00;;;;;;5039599;28;20650;-72
2022/09/21 13:08:24;;;;;;;2.50;0.87;;;24.50;46.90;;;;;;5056402;28;20561;-72
2022/09/21 13:10:54;;;;;;;3.13;0.67;;;24.30;46.60;;;;;;5073998;28;20566;-71
2022/09/21 13:13:23;;;;;;;1.70;0.90;;;24.00;46.30;;;;;;5074131;28;20567;-74
2022/09/21 13:15:50;;;;;;;2.27;0.70;;;23.80;46.40;;;;;;5056046;28;20595;-73
2022/09/21 13:18:27;;;;;;;1.60;0.60;;;23.60;46.40;;;;;;5074063;28;20563;-73
2022/09/21 13:20:55;;;;;;;1.37;0.60;;;23.30;46.30;;;;;;5073861;28;20573;-74
2022/09/21 13:23:33;;;;;;;1.50;0.60;;;23.20;46.40;;;;;;5073811;28;20574;-74